sensor_id;sensor_type;location;lat;lon;timestamp;temperature;humidity
19652;DHT22;9974;52.146;14.668;2023-09-07T00:00:10;15.40;99.90
19652;DHT22;9974;52.146;14.668;2023-09-07T00:02:36;15.20;99.90
19652;DHT22;9974;52.146;14.668;2023-09-07T00:05:02;15.40;99.90
19652;DHT22;9974;52.146;14.668;2023-09-07T00:09:53;14.90;99.90
19652;DHT22;9974;52.146;14.668;2023-09-07T00:14:46;15.00;99.90
19652;DHT22;9974;52.146;14.668;2023-09-07T00:17:11;15.10;99.90
19652;DHT22;9974;52.146;14.668;2023-09-07T00:19:37;14.80;99.90
19652;DHT22;9974;52.146;14.668;2023-09-07T00:22:03;15.10;99.90
19652;DHT22;9974;52.146;14.668;2023-09-07T00:24:30;14.90;99.90
19652;DHT22;9974;52.146;14.668;2023-09-07T00:26:57;15.00;99.90
19652;DHT22;9974;52.146;14.668;2023-09-07T00:29:23;14.80;99.90
19652;DHT22;9974;52.146;14.668;2023-09-07T00:31:49;15.00;99.90
19652;DHT22;9974;52.146;14.668;2023-09-07T00:34:14;14.70;99.90
19652;DHT22;9974;52.146;14.668;2023-09-07T00:36:40;15.10;99.90
19652;DHT22;9974;52.146;14.668;2023-09-07T00:39:06;14.80;99.90
19652;DHT22;9974;52.146;14.668;2023-09-07T00:41:31;15.10;99.90
19652;DHT22;9974;52.146;14.668;2023-09-07T00:43:57;14.80;99.90
19652;DHT22;9974;52.146;14.668;2023-09-07T00:46:22;14.50;99.90
19652;DHT22;9974;52.146;14.668;2023-09-07T00:48:49;14.80;99.90
19652;DHT22;9974;52.146;14.668;2023-09-07T00:51:15;14.30;99.90
19652;DHT22;9974;52.146;14.668;2023-09-07T00:53:41;15.10;99.90
19652;DHT22;9974;52.146;14.668;2023-09-07T00:56:07;14.80;99.90
19652;DHT22;9974;52.146;14.668;2023-09-07T00:58:33;14.20;99.90
19652;DHT22;9974;52.146;14.668;2023-09-07T01:00:59;14.70;99.90
19652;DHT22;9974;52.146;14.668;2023-09-07T01:03:25;14.80;99.90
19652;DHT22;9974;52.146;14.668;2023-09-07T01:06:03;14.40;99.90
19652;DHT22;9974;52.146;14.668;2023-09-07T01:08:50;14.70;99.90
19652;DHT22;9974;52.146;14.668;2023-09-07T01:11:20;14.90;99.90
19652;DHT22;9974;52.146;14.668;2023-09-07T01:13:48;14.30;99.90
19652;DHT22;9974;52.146;14.668;2023-09-07T01:16:14;14.70;99.90
19652;DHT22;9974;52.146;14.668;2023-09-07T01:18:40;14.20;99.90
19652;DHT22;9974;52.146;14.668;2023-09-07T01:21:07;14.50;99.90
19652;DHT22;9974;52.146;14.668;2023-09-07T01:23:35;13.70;99.90
19652;DHT22;9974;52.146;14.668;2023-09-07T01:26:03;13.90;99.90
19652;DHT22;9974;52.146;14.668;2023-09-07T01:28:29;14.30;99.90
19652;DHT22;9974;52.146;14.668;2023-09-07T01:30:54;14.40;99.90
19652;DHT22;9974;52.146;14.668;2023-09-07T01:33:20;14.10;99.90
19652;DHT22;9974;52.146;14.668;2023-09-07T01:35:46;14.10;99.90
19652;DHT22;9974;52.146;14.668;2023-09-07T01:38:12;14.00;99.90
19652;DHT22;9974;52.146;14.668;2023-09-07T01:40:37;14.20;99.90
19652;DHT22;9974;52.146;14.668;2023-09-07T01:43:03;14.20;99.90
19652;DHT22;9974;52.146;14.668;2023-09-07T01:45:29;14.50;99.90
19652;DHT22;9974;52.146;14.668;2023-09-07T01:47:54;14.10;99.90
19652;DHT22;9974;52.146;14.668;2023-09-07T01:50:20;13.70;99.90
19652;DHT22;9974;52.146;14.668;2023-09-07T01:52:49;14.10;99.90
19652;DHT22;9974;52.146;14.668;2023-09-07T01:55:14;14.20;99.90
19652;DHT22;9974;52.146;14.668;2023-09-07T01:57:40;14.40;99.90
19652;DHT22;9974;52.146;14.668;2023-09-07T02:00:06;14.00;99.90
19652;DHT22;9974;52.146;14.668;2023-09-07T02:02:32;14.40;99.90
19652;DHT22;9974;52.146;14.668;2023-09-07T02:04:58;14.20;99.90
19652;DHT22;9974;52.146;14.668;2023-09-07T02:07:23;14.00;99.90
19652;DHT22;9974;52.146;14.668;2023-09-07T02:09:49;14.00;99.90
19652;DHT22;9974;52.146;14.668;2023-09-07T02:12:15;14.20;99.90
19652;DHT22;9974;52.146;14.668;2023-09-07T02:14:40;13.70;99.90
19652;DHT22;9974;52.146;14.668;2023-09-07T02:17:06;13.60;99.90
19652;DHT22;9974;52.146;14.668;2023-09-07T02:19:32;14.20;99.90
19652;DHT22;9974;52.146;14.668;2023-09-07T02:21:57;13.90;99.90
19652;DHT22;9974;52.146;14.668;2023-09-07T02:24:23;14.00;99.90
19652;DHT22;9974;52.146;14.668;2023-09-07T02:26:49;14.00;99.90
19652;DHT22;9974;52.146;14.668;2023-09-07T02:29:15;13.70;99.90
19652;DHT22;9974;52.146;14.668;2023-09-07T02:31:41;13.90;99.90
19652;DHT22;9974;52.146;14.668;2023-09-07T02:34:07;13.70;99.90
19652;DHT22;9974;52.146;14.668;2023-09-07T02:36:33;13.50;99.90
19652;DHT22;9974;52.146;14.668;2023-09-07T02:39:02;14.00;99.90
19652;DHT22;9974;52.146;14.668;2023-09-07T02:41:30;13.50;99.90
19652;DHT22;9974;52.146;14.668;2023-09-07T02:43:56;13.20;99.90
19652;DHT22;9974;52.146;14.668;2023-09-07T02:46:22;13.50;99.90
19652;DHT22;9974;52.146;14.668;2023-09-07T02:48:47;13.50;99.90
19652;DHT22;9974;52.146;14.668;2023-09-07T02:51:13;13.90;99.90
19652;DHT22;9974;52.146;14.668;2023-09-07T02:56:05;13.30;99.90
19652;DHT22;9974;52.146;14.668;2023-09-07T02:58:31;13.70;99.90
19652;DHT22;9974;52.146;14.668;2023-09-07T03:00:56;13.70;99.90
19652;DHT22;9974;52.146;14.668;2023-09-07T03:05:49;13.50;99.90
19652;DHT22;9974;52.146;14.668;2023-09-07T03:08:14;13.70;99.90
19652;DHT22;9974;52.146;14.668;2023-09-07T03:10:40;13.70;99.90
19652;DHT22;9974;52.146;14.668;2023-09-07T03:13:07;13.60;99.90
19652;DHT22;9974;52.146;14.668;2023-09-07T03:15:32;13.40;99.90
19652;DHT22;9974;52.146;14.668;2023-09-07T03:17:59;13.60;99.90
19652;DHT22;9974;52.146;14.668;2023-09-07T03:20:25;13.70;99.90
19652;DHT22;9974;52.146;14.668;2023-09-07T03:22:50;13.40;99.90
19652;DHT22;9974;52.146;14.668;2023-09-07T03:25:16;12.90;99.90
19652;DHT22;9974;52.146;14.668;2023-09-07T03:27:42;13.30;99.90
19652;DHT22;9974;52.146;14.668;2023-09-07T03:30:07;13.40;99.90
19652;DHT22;9974;52.146;14.668;2023-09-07T03:32:33;13.40;99.90
19652;DHT22;9974;52.146;14.668;2023-09-07T03:35:04;13.20;99.90
19652;DHT22;9974;52.146;14.668;2023-09-07T03:37:34;13.60;99.90
19652;DHT22;9974;52.146;14.668;2023-09-07T03:40:00;13.20;99.90
19652;DHT22;9974;52.146;14.668;2023-09-07T03:42:26;13.40;99.90
19652;DHT22;9974;52.146;14.668;2023-09-07T03:44:52;13.50;99.90
19652;DHT22;9974;52.146;14.668;2023-09-07T03:47:17;13.10;99.90
19652;DHT22;9974;52.146;14.668;2023-09-07T03:49:43;13.60;99.90
19652;DHT22;9974;52.146;14.668;2023-09-07T03:52:09;13.60;99.90
19652;DHT22;9974;52.146;14.668;2023-09-07T03:54:35;13.50;99.90
19652;DHT22;9974;52.146;14.668;2023-09-07T03:57:01;13.50;99.90
19652;DHT22;9974;52.146;14.668;2023-09-07T03:59:27;13.30;99.90
19652;DHT22;9974;52.146;14.668;2023-09-07T04:04:20;13.50;99.90
19652;DHT22;9974;52.146;14.668;2023-09-07T04:06:48;13.20;99.90
19652;DHT22;9974;52.146;14.668;2023-09-07T04:09:14;13.20;99.90
19652;DHT22;9974;52.146;14.668;2023-09-07T04:14:06;13.20;99.90
19652;DHT22;9974;52.146;14.668;2023-09-07T04:16:31;13.20;99.90
19652;DHT22;9974;52.146;14.668;2023-09-07T04:18:57;12.60;99.90
19652;DHT22;9974;52.146;14.668;2023-09-07T04:21:23;12.30;99.90
19652;DHT22;9974;52.146;14.668;2023-09-07T04:23:48;12.90;99.90
19652;DHT22;9974;52.146;14.668;2023-09-07T04:26:14;12.20;99.90
19652;DHT22;9974;52.146;14.668;2023-09-07T04:28:40;12.90;99.90
19652;DHT22;9974;52.146;14.668;2023-09-07T04:31:06;12.70;99.90
19652;DHT22;9974;52.146;14.668;2023-09-07T04:33:33;13.00;99.90
19652;DHT22;9974;52.146;14.668;2023-09-07T04:36:14;12.90;99.90
19652;DHT22;9974;52.146;14.668;2023-09-07T04:38:41;13.00;99.90
19652;DHT22;9974;52.146;14.668;2023-09-07T04:41:10;12.90;99.90
19652;DHT22;9974;52.146;14.668;2023-09-07T04:43:40;13.00;99.90
19652;DHT22;9974;52.146;14.668;2023-09-07T04:46:11;12.60;99.90
19652;DHT22;9974;52.146;14.668;2023-09-07T04:48:38;12.80;99.90
19652;DHT22;9974;52.146;14.668;2023-09-07T04:51:05;12.30;99.90
19652;DHT22;9974;52.146;14.668;2023-09-07T04:53:34;12.10;99.90
19652;DHT22;9974;52.146;14.668;2023-09-07T04:56:02;12.90;99.90
19652;DHT22;9974;52.146;14.668;2023-09-07T04:58:28;12.90;99.90
19652;DHT22;9974;52.146;14.668;2023-09-07T05:00:54;13.10;99.90
19652;DHT22;9974;52.146;14.668;2023-09-07T05:03:29;12.40;99.90
19652;DHT22;9974;52.146;14.668;2023-09-07T05:05:55;13.20;99.90
19652;DHT22;9974;52.146;14.668;2023-09-07T05:08:21;13.00;99.90
19652;DHT22;9974;52.146;14.668;2023-09-07T05:10:54;12.70;99.90
19652;DHT22;9974;52.146;14.668;2023-09-07T05:13:26;13.10;99.90
19652;DHT22;9974;52.146;14.668;2023-09-07T05:15:54;12.90;99.90
19652;DHT22;9974;52.146;14.668;2023-09-07T05:18:20;12.90;99.90
19652;DHT22;9974;52.146;14.668;2023-09-07T05:20:47;12.90;99.90
19652;DHT22;9974;52.146;14.668;2023-09-07T05:23:19;13.60;99.90
19652;DHT22;9974;52.146;14.668;2023-09-07T05:25:46;13.30;99.90
19652;DHT22;9974;52.146;14.668;2023-09-07T05:28:14;13.90;99.90
19652;DHT22;9974;52.146;14.668;2023-09-07T05:30:41;13.40;99.90
19652;DHT22;9974;52.146;14.668;2023-09-07T05:33:08;13.20;99.90
19652;DHT22;9974;52.146;14.668;2023-09-07T05:35:35;13.90;99.90
19652;DHT22;9974;52.146;14.668;2023-09-07T05:38:01;14.00;99.90
19652;DHT22;9974;52.146;14.668;2023-09-07T05:40:27;13.60;99.90
19652;DHT22;9974;52.146;14.668;2023-09-07T05:42:53;13.80;99.90
19652;DHT22;9974;52.146;14.668;2023-09-07T05:45:20;14.00;99.90
19652;DHT22;9974;52.146;14.668;2023-09-07T05:47:45;14.40;99.90
19652;DHT22;9974;52.146;14.668;2023-09-07T05:50:11;14.00;99.90
19652;DHT22;9974;52.146;14.668;2023-09-07T05:52:37;14.40;99.90
19652;DHT22;9974;52.146;14.668;2023-09-07T05:55:03;14.30;99.90
19652;DHT22;9974;52.146;14.668;2023-09-07T05:57:29;14.30;99.90
19652;DHT22;9974;52.146;14.668;2023-09-07T05:59:55;14.50;99.90
19652;DHT22;9974;52.146;14.668;2023-09-07T06:02:20;14.60;99.90
19652;DHT22;9974;52.146;14.668;2023-09-07T06:04:46;14.60;99.90
19652;DHT22;9974;52.146;14.668;2023-09-07T06:07:12;14.80;99.90
19652;DHT22;9974;52.146;14.668;2023-09-07T06:09:37;15.00;99.90
19652;DHT22;9974;52.146;14.668;2023-09-07T06:12:03;15.70;99.90
19652;DHT22;9974;52.146;14.668;2023-09-07T06:14:29;15.70;99.90
19652;DHT22;9974;52.146;14.668;2023-09-07T06:16:54;15.50;99.90
19652;DHT22;9974;52.146;14.668;2023-09-07T06:19:20;15.60;99.90
19652;DHT22;9974;52.146;14.668;2023-09-07T06:21:46;15.70;99.90
19652;DHT22;9974;52.146;14.668;2023-09-07T06:24:12;16.40;99.90
19652;DHT22;9974;52.146;14.668;2023-09-07T06:29:04;16.10;99.90
19652;DHT22;9974;52.146;14.668;2023-09-07T06:31:29;16.50;99.90
19652;DHT22;9974;52.146;14.668;2023-09-07T06:33:55;16.60;99.90
19652;DHT22;9974;52.146;14.668;2023-09-07T06:38:47;16.40;99.90
19652;DHT22;9974;52.146;14.668;2023-09-07T06:41:12;16.60;99.90
19652;DHT22;9974;52.146;14.668;2023-09-07T06:43:38;16.50;99.90
19652;DHT22;9974;52.146;14.668;2023-09-07T06:46:06;17.10;99.90
19652;DHT22;9974;52.146;14.668;2023-09-07T06:51:05;17.30;99.90
19652;DHT22;9974;52.146;14.668;2023-09-07T06:53:31;17.40;99.90
19652;DHT22;9974;52.146;14.668;2023-09-07T06:56:01;17.10;99.90
19652;DHT22;9974;52.146;14.668;2023-09-07T06:58:28;18.10;99.90
19652;DHT22;9974;52.146;14.668;2023-09-07T07:01:01;17.40;99.90
19652;DHT22;9974;52.146;14.668;2023-09-07T07:03:28;17.30;99.90
19652;DHT22;9974;52.146;14.668;2023-09-07T07:05:55;17.60;99.90
19652;DHT22;9974;52.146;14.668;2023-09-07T07:08:21;17.50;99.90
19652;DHT22;9974;52.146;14.668;2023-09-07T07:10:46;17.50;99.90
19652;DHT22;9974;52.146;14.668;2023-09-07T07:13:12;17.80;99.90
19652;DHT22;9974;52.146;14.668;2023-09-07T07:15:38;18.30;99.90
19652;DHT22;9974;52.146;14.668;2023-09-07T07:18:04;17.90;99.90
19652;DHT22;9974;52.146;14.668;2023-09-07T07:20:41;18.20;99.90
19652;DHT22;9974;52.146;14.668;2023-09-07T07:23:09;18.20;99.90
19652;DHT22;9974;52.146;14.668;2023-09-07T07:25:35;18.90;99.90
19652;DHT22;9974;52.146;14.668;2023-09-07T07:28:05;19.30;99.90
19652;DHT22;9974;52.146;14.668;2023-09-07T07:30:33;19.30;99.90
19652;DHT22;9974;52.146;14.668;2023-09-07T07:33:00;19.30;99.90
19652;DHT22;9974;52.146;14.668;2023-09-07T07:35:26;19.40;99.90
19652;DHT22;9974;52.146;14.668;2023-09-07T07:37:52;19.60;99.90
19652;DHT22;9974;52.146;14.668;2023-09-07T07:40:18;19.80;99.90
19652;DHT22;9974;52.146;14.668;2023-09-07T07:42:44;20.40;99.90
19652;DHT22;9974;52.146;14.668;2023-09-07T07:45:11;20.10;99.90
19652;DHT22;9974;52.146;14.668;2023-09-07T07:47:38;19.80;99.90
19652;DHT22;9974;52.146;14.668;2023-09-07T07:50:04;19.80;99.90
19652;DHT22;9974;52.146;14.668;2023-09-07T07:54:56;20.40;99.90
19652;DHT22;9974;52.146;14.668;2023-09-07T07:57:22;20.30;99.90
19652;DHT22;9974;52.146;14.668;2023-09-07T07:59:48;20.70;99.90
19652;DHT22;9974;52.146;14.668;2023-09-07T08:04:39;20.90;99.90
19652;DHT22;9974;52.146;14.668;2023-09-07T08:07:05;21.00;99.90
19652;DHT22;9974;52.146;14.668;2023-09-07T08:09:32;21.50;99.90
19652;DHT22;9974;52.146;14.668;2023-09-07T08:11:58;21.60;99.90
19652;DHT22;9974;52.146;14.668;2023-09-07T08:14:25;22.30;99.90
19652;DHT22;9974;52.146;14.668;2023-09-07T08:16:52;22.60;99.90
19652;DHT22;9974;52.146;14.668;2023-09-07T08:19:18;22.80;99.90
19652;DHT22;9974;52.146;14.668;2023-09-07T08:21:44;23.10;99.90
19652;DHT22;9974;52.146;14.668;2023-09-07T08:24:11;23.30;99.90
19652;DHT22;9974;52.146;14.668;2023-09-07T08:26:37;23.60;99.90
19652;DHT22;9974;52.146;14.668;2023-09-07T08:29:03;23.90;99.90
19652;DHT22;9974;52.146;14.668;2023-09-07T08:31:37;23.90;99.90
19652;DHT22;9974;52.146;14.668;2023-09-07T08:34:07;24.10;99.90
19652;DHT22;9974;52.146;14.668;2023-09-07T08:39:06;24.40;99.90
19652;DHT22;9974;52.146;14.668;2023-09-07T08:41:37;24.50;99.90
19652;DHT22;9974;52.146;14.668;2023-09-07T08:44:17;24.70;99.90
19652;DHT22;9974;52.146;14.668;2023-09-07T08:46:44;24.80;99.90
19652;DHT22;9974;52.146;14.668;2023-09-07T08:49:11;25.00;99.90
19652;DHT22;9974;52.146;14.668;2023-09-07T08:51:38;25.30;99.90
19652;DHT22;9974;52.146;14.668;2023-09-07T08:54:04;25.30;99.90
19652;DHT22;9974;52.146;14.668;2023-09-07T08:56:31;25.40;99.90
19652;DHT22;9974;52.146;14.668;2023-09-07T08:58:57;25.80;99.90
19652;DHT22;9974;52.146;14.668;2023-09-07T09:01:22;26.00;99.90
19652;DHT22;9974;52.146;14.668;2023-09-07T09:03:52;26.10;99.90
19652;DHT22;9974;52.146;14.668;2023-09-07T09:06:20;26.00;99.90
19652;DHT22;9974;52.146;14.668;2023-09-07T09:08:49;26.50;99.90
19652;DHT22;9974;52.146;14.668;2023-09-07T09:11:18;27.10;99.90
19652;DHT22;9974;52.146;14.668;2023-09-07T09:13:44;27.30;99.90
19652;DHT22;9974;52.146;14.668;2023-09-07T09:16:11;27.50;99.90
19652;DHT22;9974;52.146;14.668;2023-09-07T09:18:54;27.40;99.90
19652;DHT22;9974;52.146;14.668;2023-09-07T09:21:22;27.80;99.90
19652;DHT22;9974;52.146;14.668;2023-09-07T09:23:53;28.30;99.90
19652;DHT22;9974;52.146;14.668;2023-09-07T09:26:21;28.70;99.90
19652;DHT22;9974;52.146;14.668;2023-09-07T09:28:47;28.30;99.30
19652;DHT22;9974;52.146;14.668;2023-09-07T09:31:13;28.70;96.70
19652;DHT22;9974;52.146;14.668;2023-09-07T09:33:41;28.90;96.60
19652;DHT22;9974;52.146;14.668;2023-09-07T09:36:07;28.10;95.90
19652;DHT22;9974;52.146;14.668;2023-09-07T09:38:34;28.60;97.40
19652;DHT22;9974;52.146;14.668;2023-09-07T09:41:01;28.40;96.90
19652;DHT22;9974;52.146;14.668;2023-09-07T09:43:28;29.00;95.60
19652;DHT22;9974;52.146;14.668;2023-09-07T09:45:54;29.20;97.20
19652;DHT22;9974;52.146;14.668;2023-09-07T09:48:20;28.80;93.20
19652;DHT22;9974;52.146;14.668;2023-09-07T09:50:47;29.20;93.40
19652;DHT22;9974;52.146;14.668;2023-09-07T09:53:17;29.40;94.00
19652;DHT22;9974;52.146;14.668;2023-09-07T09:55:45;29.40;93.90
19652;DHT22;9974;52.146;14.668;2023-09-07T09:58:15;29.50;93.50
19652;DHT22;9974;52.146;14.668;2023-09-07T10:00:46;29.40;94.10
19652;DHT22;9974;52.146;14.668;2023-09-07T10:03:15;29.80;92.90
19652;DHT22;9974;52.146;14.668;2023-09-07T10:05:46;29.70;89.80
19652;DHT22;9974;52.146;14.668;2023-09-07T10:08:13;29.90;89.70
19652;DHT22;9974;52.146;14.668;2023-09-07T10:10:41;29.80;90.90
19652;DHT22;9974;52.146;14.668;2023-09-07T10:13:08;29.90;91.30
19652;DHT22;9974;52.146;14.668;2023-09-07T10:15:34;29.90;90.70
19652;DHT22;9974;52.146;14.668;2023-09-07T10:18:11;30.20;89.10
19652;DHT22;9974;52.146;14.668;2023-09-07T10:20:57;30.10;88.50
19652;DHT22;9974;52.146;14.668;2023-09-07T10:26:03;30.30;83.60
19652;DHT22;9974;52.146;14.668;2023-09-07T10:28:30;30.40;82.10
19652;DHT22;9974;52.146;14.668;2023-09-07T10:31:06;30.00;81.10
19652;DHT22;9974;52.146;14.668;2023-09-07T10:33:34;29.70;83.80
19652;DHT22;9974;52.146;14.668;2023-09-07T10:36:01;29.90;83.90
19652;DHT22;9974;52.146;14.668;2023-09-07T10:40:57;30.60;78.60
19652;DHT22;9974;52.146;14.668;2023-09-07T10:43:25;30.40;78.60
19652;DHT22;9974;52.146;14.668;2023-09-07T10:45:52;29.80;77.90
19652;DHT22;9974;52.146;14.668;2023-09-07T10:48:18;30.20;79.50
19652;DHT22;9974;52.146;14.668;2023-09-07T10:50:45;30.40;80.90
19652;DHT22;9974;52.146;14.668;2023-09-07T10:53:15;31.00;76.40
19652;DHT22;9974;52.146;14.668;2023-09-07T10:55:49;31.30;76.10
19652;DHT22;9974;52.146;14.668;2023-09-07T10:58:26;31.20;74.40
19652;DHT22;9974;52.146;14.668;2023-09-07T11:00:56;30.90;76.40
19652;DHT22;9974;52.146;14.668;2023-09-07T11:03:24;31.10;77.10
19652;DHT22;9974;52.146;14.668;2023-09-07T11:05:54;31.10;77.80
19652;DHT22;9974;52.146;14.668;2023-09-07T11:08:22;31.40;79.50
19652;DHT22;9974;52.146;14.668;2023-09-07T11:10:50;31.40;78.10
19652;DHT22;9974;52.146;14.668;2023-09-07T11:13:17;31.50;76.80
19652;DHT22;9974;52.146;14.668;2023-09-07T11:15:43;31.90;77.30
19652;DHT22;9974;52.146;14.668;2023-09-07T11:18:09;32.00;75.30
19652;DHT22;9974;52.146;14.668;2023-09-07T11:20:36;31.90;75.30
19652;DHT22;9974;52.146;14.668;2023-09-07T11:23:05;32.30;77.80
19652;DHT22;9974;52.146;14.668;2023-09-07T11:25:38;32.50;74.80
19652;DHT22;9974;52.146;14.668;2023-09-07T11:28:06;32.00;70.80
19652;DHT22;9974;52.146;14.668;2023-09-07T11:30:32;32.10;72.00
19652;DHT22;9974;52.146;14.668;2023-09-07T11:33:06;32.40;71.70
19652;DHT22;9974;52.146;14.668;2023-09-07T11:35:33;32.50;71.70
19652;DHT22;9974;52.146;14.668;2023-09-07T11:38:03;32.90;71.90
19652;DHT22;9974;52.146;14.668;2023-09-07T11:40:31;33.40;70.50
19652;DHT22;9974;52.146;14.668;2023-09-07T11:42:57;33.40;68.60
19652;DHT22;9974;52.146;14.668;2023-09-07T11:45:23;33.50;69.90
19652;DHT22;9974;52.146;14.668;2023-09-07T11:47:49;33.80;68.20
19652;DHT22;9974;52.146;14.668;2023-09-07T11:50:18;34.30;65.20
19652;DHT22;9974;52.146;14.668;2023-09-07T11:52:44;34.30;65.60
19652;DHT22;9974;52.146;14.668;2023-09-07T11:55:10;34.60;65.10
19652;DHT22;9974;52.146;14.668;2023-09-07T11:57:36;34.50;63.20
19652;DHT22;9974;52.146;14.668;2023-09-07T12:00:04;34.10;62.90
19652;DHT22;9974;52.146;14.668;2023-09-07T12:02:30;34.10;64.20
19652;DHT22;9974;52.146;14.668;2023-09-07T12:04:56;33.90;63.80
19652;DHT22;9974;52.146;14.668;2023-09-07T12:09:48;33.50;63.90
19652;DHT22;9974;52.146;14.668;2023-09-07T12:12:14;33.40;63.00
19652;DHT22;9974;52.146;14.668;2023-09-07T12:14:39;33.50;62.90
19652;DHT22;9974;52.146;14.668;2023-09-07T12:17:05;33.80;62.60
19652;DHT22;9974;52.146;14.668;2023-09-07T12:19:31;33.70;63.40
19652;DHT22;9974;52.146;14.668;2023-09-07T12:21:56;33.40;62.60
19652;DHT22;9974;52.146;14.668;2023-09-07T12:24:22;33.00;61.70
19652;DHT22;9974;52.146;14.668;2023-09-07T12:26:48;33.00;62.20
19652;DHT22;9974;52.146;14.668;2023-09-07T12:29:13;32.30;64.60
19652;DHT22;9974;52.146;14.668;2023-09-07T12:31:39;32.10;64.70
19652;DHT22;9974;52.146;14.668;2023-09-07T12:34:05;32.20;64.60
19652;DHT22;9974;52.146;14.668;2023-09-07T12:36:30;32.60;62.80
19652;DHT22;9974;52.146;14.668;2023-09-07T12:38:56;32.40;63.00
19652;DHT22;9974;52.146;14.668;2023-09-07T12:41:28;32.40;63.90
19652;DHT22;9974;52.146;14.668;2023-09-07T12:43:54;32.60;63.70
19652;DHT22;9974;52.146;14.668;2023-09-07T12:46:20;32.20;63.00
19652;DHT22;9974;52.146;14.668;2023-09-07T12:48:45;32.20;62.40
19652;DHT22;9974;52.146;14.668;2023-09-07T12:51:11;32.30;63.90
19652;DHT22;9974;52.146;14.668;2023-09-07T12:53:37;32.30;62.90
19652;DHT22;9974;52.146;14.668;2023-09-07T12:56:03;32.30;63.90
19652;DHT22;9974;52.146;14.668;2023-09-07T12:58:29;32.20;65.00
19652;DHT22;9974;52.146;14.668;2023-09-07T13:00:54;31.90;62.80
19652;DHT22;9974;52.146;14.668;2023-09-07T13:03:20;31.30;63.30
19652;DHT22;9974;52.146;14.668;2023-09-07T13:05:46;31.10;62.30
19652;DHT22;9974;52.146;14.668;2023-09-07T13:08:11;30.90;61.90
19652;DHT22;9974;52.146;14.668;2023-09-07T13:10:37;30.80;65.30
19652;DHT22;9974;52.146;14.668;2023-09-07T13:13:04;30.70;65.10
19652;DHT22;9974;52.146;14.668;2023-09-07T13:15:29;30.70;64.60
19652;DHT22;9974;52.146;14.668;2023-09-07T13:17:55;30.40;64.40
19652;DHT22;9974;52.146;14.668;2023-09-07T13:20:21;30.50;65.50
19652;DHT22;9974;52.146;14.668;2023-09-07T13:22:47;30.40;65.20
19652;DHT22;9974;52.146;14.668;2023-09-07T13:25:12;30.40;69.60
19652;DHT22;9974;52.146;14.668;2023-09-07T13:27:38;30.40;70.70
19652;DHT22;9974;52.146;14.668;2023-09-07T13:30:05;30.20;70.80
19652;DHT22;9974;52.146;14.668;2023-09-07T13:32:33;30.10;70.50
19652;DHT22;9974;52.146;14.668;2023-09-07T13:34:59;29.70;71.30
19652;DHT22;9974;52.146;14.668;2023-09-07T13:37:25;29.80;72.00
19652;DHT22;9974;52.146;14.668;2023-09-07T13:39:51;29.30;71.50
19652;DHT22;9974;52.146;14.668;2023-09-07T13:42:16;29.70;71.50
19652;DHT22;9974;52.146;14.668;2023-09-07T13:44:42;29.90;72.60
19652;DHT22;9974;52.146;14.668;2023-09-07T13:47:10;29.60;71.60
19652;DHT22;9974;52.146;14.668;2023-09-07T13:49:36;29.90;72.00
19652;DHT22;9974;52.146;14.668;2023-09-07T13:52:02;29.80;73.00
19652;DHT22;9974;52.146;14.668;2023-09-07T13:54:28;29.70;73.80
19652;DHT22;9974;52.146;14.668;2023-09-07T13:56:54;29.80;74.90
19652;DHT22;9974;52.146;14.668;2023-09-07T13:59:20;29.60;75.00
19652;DHT22;9974;52.146;14.668;2023-09-07T14:01:45;29.60;73.80
19652;DHT22;9974;52.146;14.668;2023-09-07T14:04:11;29.70;75.10
19652;DHT22;9974;52.146;14.668;2023-09-07T14:06:37;29.50;74.80
19652;DHT22;9974;52.146;14.668;2023-09-07T14:09:02;29.20;74.40
19652;DHT22;9974;52.146;14.668;2023-09-07T14:11:28;29.50;74.70
19652;DHT22;9974;52.146;14.668;2023-09-07T14:13:54;29.20;75.00
19652;DHT22;9974;52.146;14.668;2023-09-07T14:16:20;29.20;74.60
19652;DHT22;9974;52.146;14.668;2023-09-07T14:18:46;29.30;73.00
19652;DHT22;9974;52.146;14.668;2023-09-07T14:21:14;29.40;73.70
19652;DHT22;9974;52.146;14.668;2023-09-07T14:23:40;29.50;74.40
19652;DHT22;9974;52.146;14.668;2023-09-07T14:28:32;29.30;74.90
19652;DHT22;9974;52.146;14.668;2023-09-07T14:30:57;29.30;75.50
19652;DHT22;9974;52.146;14.668;2023-09-07T14:33:28;29.00;74.50
19652;DHT22;9974;52.146;14.668;2023-09-07T14:35:54;29.30;74.20
19652;DHT22;9974;52.146;14.668;2023-09-07T14:38:20;28.80;74.60
19652;DHT22;9974;52.146;14.668;2023-09-07T14:40:46;29.00;73.50
19652;DHT22;9974;52.146;14.668;2023-09-07T14:43:14;29.10;73.80
19652;DHT22;9974;52.146;14.668;2023-09-07T14:45:40;29.30;72.00
19652;DHT22;9974;52.146;14.668;2023-09-07T14:48:06;28.80;73.50
19652;DHT22;9974;52.146;14.668;2023-09-07T14:50:31;29.20;74.10
19652;DHT22;9974;52.146;14.668;2023-09-07T14:52:57;29.00;74.40
19652;DHT22;9974;52.146;14.668;2023-09-07T14:55:23;28.80;74.60
19652;DHT22;9974;52.146;14.668;2023-09-07T14:57:48;28.80;74.60
19652;DHT22;9974;52.146;14.668;2023-09-07T15:00:14;28.80;75.30
19652;DHT22;9974;52.146;14.668;2023-09-07T15:02:40;28.80;75.50
19652;DHT22;9974;52.146;14.668;2023-09-07T15:05:06;28.70;76.10
19652;DHT22;9974;52.146;14.668;2023-09-07T15:07:31;28.80;76.70
19652;DHT22;9974;52.146;14.668;2023-09-07T15:09:57;28.80;75.90
19652;DHT22;9974;52.146;14.668;2023-09-07T15:12:23;28.60;75.50
19652;DHT22;9974;52.146;14.668;2023-09-07T15:14:48;28.60;75.90
19652;DHT22;9974;52.146;14.668;2023-09-07T15:17:15;28.50;76.60
19652;DHT22;9974;52.146;14.668;2023-09-07T15:19:42;28.40;76.40
19652;DHT22;9974;52.146;14.668;2023-09-07T15:22:08;28.40;75.40
19652;DHT22;9974;52.146;14.668;2023-09-07T15:24:33;28.50;75.70
19652;DHT22;9974;52.146;14.668;2023-09-07T15:27:07;28.40;75.60
19652;DHT22;9974;52.146;14.668;2023-09-07T15:29:37;28.40;75.50
19652;DHT22;9974;52.146;14.668;2023-09-07T15:32:04;28.30;76.40
19652;DHT22;9974;52.146;14.668;2023-09-07T15:34:31;28.30;76.30
19652;DHT22;9974;52.146;14.668;2023-09-07T15:36:57;28.00;77.10
19652;DHT22;9974;52.146;14.668;2023-09-07T15:39:23;28.00;76.80
19652;DHT22;9974;52.146;14.668;2023-09-07T15:41:48;28.20;77.90
19652;DHT22;9974;52.146;14.668;2023-09-07T15:44:14;28.00;76.90
19652;DHT22;9974;52.146;14.668;2023-09-07T15:46:40;27.90;77.80
19652;DHT22;9974;52.146;14.668;2023-09-07T15:49:07;27.80;78.30
19652;DHT22;9974;52.146;14.668;2023-09-07T15:51:33;27.80;78.20
19652;DHT22;9974;52.146;14.668;2023-09-07T15:56:26;27.70;77.50
19652;DHT22;9974;52.146;14.668;2023-09-07T15:58:53;27.60;77.60
19652;DHT22;9974;52.146;14.668;2023-09-07T16:03:45;27.60;77.90
19652;DHT22;9974;52.146;14.668;2023-09-07T16:06:10;27.20;77.50
19652;DHT22;9974;52.146;14.668;2023-09-07T16:08:36;26.90;77.90
19652;DHT22;9974;52.146;14.668;2023-09-07T16:11:02;27.20;79.00